createdAt,value
2019-04-29T00:02:15.851Z,10.63
2019-04-29T00:04:41.683Z,10.81
2019-04-29T00:07:07.831Z,10.44
2019-04-29T00:09:33.679Z,10.63
2019-04-29T00:11:59.588Z,10.63
2019-04-29T00:14:25.513Z,10.56
2019-04-29T00:16:53.407Z,10.56
2019-04-29T00:19:39.387Z,10.50
2019-04-29T00:22:05.382Z,10.44
2019-04-29T00:24:31.219Z,10.44
2019-04-29T00:26:57.071Z,10.63
2019-04-29T00:29:22.975Z,10.69
2019-04-29T00:31:48.849Z,10.56
2019-04-29T00:34:14.699Z,10.69
2019-04-29T00:36:54.519Z,10.44
2019-04-29T00:39:31.121Z,10.56
2019-04-29T00:42:07.467Z,10.75
2019-04-29T00:44:33.404Z,10.69
2019-04-29T00:46:59.226Z,10.69
2019-04-29T00:49:25.105Z,10.44
2019-04-29T00:51:51.133Z,10.38
2019-04-29T00:54:18.875Z,10.44
2019-04-29T00:56:44.737Z,10.56
2019-04-29T00:59:10.596Z,10.56
2019-04-29T01:01:36.461Z,10.38
2019-04-29T01:04:02.482Z,10.63
2019-04-29T01:06:28.310Z,10.38
2019-04-29T01:08:54.246Z,10.38
2019-04-29T01:11:20.174Z,10.31
2019-04-29T01:13:46.047Z,10.25
2019-04-29T01:16:12.011Z,10.25
2019-04-29T01:18:38.054Z,10.19
2019-04-29T01:21:03.911Z,10.13
2019-04-29T01:23:29.768Z,10.25
2019-04-29T01:25:57.610Z,10.00
2019-04-29T01:28:25.430Z,10.25
2019-04-29T01:30:59.885Z,10.25
2019-04-29T01:33:25.840Z,10.19
2019-04-29T01:35:53.706Z,10.25
2019-04-29T01:38:19.654Z,10.25
2019-04-29T01:40:59.126Z,10.00
2019-04-29T01:43:26.889Z,10.25
2019-04-29T01:45:52.712Z,10.00
2019-04-29T01:48:18.580Z,10.00
2019-04-29T01:50:44.526Z,9.94
2019-04-29T01:53:10.399Z,9.94
2019-04-29T01:55:36.312Z,10.06
2019-04-29T01:58:02.148Z,10.00
2019-04-29T02:00:28.086Z,10.06
2019-04-29T02:02:53.932Z,9.94
2019-04-29T02:05:19.794Z,10.00
2019-04-29T02:07:45.646Z,10.06
2019-04-29T02:10:22.522Z,10.06
2019-04-29T02:12:48.350Z,9.75
2019-04-29T02:15:14.263Z,9.94
2019-04-29T02:17:40.189Z,9.81
2019-04-29T02:20:06.250Z,9.81
2019-04-29T02:22:36.612Z,9.75
2019-04-29T02:25:08.720Z,9.88
2019-04-29T02:27:34.568Z,9.69
2019-04-29T02:30:00.455Z,9.69
2019-04-29T02:32:26.278Z,9.63
2019-04-29T02:34:52.117Z,9.56
2019-04-29T02:37:19.910Z,9.56
2019-04-29T02:39:47.760Z,9.50
2019-04-29T02:42:31.961Z,9.44
2019-04-29T02:44:59.859Z,9.56
2019-04-29T02:47:25.757Z,9.56
2019-04-29T02:49:51.623Z,9.38
2019-04-29T02:52:17.600Z,9.38
2019-04-29T02:54:44.167Z,9.44
2019-04-29T02:57:14.709Z,9.69
2019-04-29T02:59:45.094Z,9.63
2019-04-29T03:02:28.060Z,9.44
2019-04-29T03:05:10.731Z,9.63
2019-04-29T03:07:36.581Z,9.63
2019-04-29T03:10:04.515Z,9.63
2019-04-29T03:12:30.592Z,9.50
2019-04-29T03:14:56.529Z,9.50
2019-04-29T03:17:22.590Z,9.50
2019-04-29T03:20:07.294Z,9.56
2019-04-29T03:22:33.451Z,9.44
2019-04-29T03:24:59.283Z,9.44
2019-04-29T03:27:25.246Z,9.44
2019-04-29T03:29:51.207Z,9.50
2019-04-29T03:32:17.168Z,9.63
2019-04-29T03:34:43.108Z,9.50
2019-04-29T03:37:08.980Z,9.44
2019-04-29T03:39:34.869Z,9.50
2019-04-29T03:42:00.808Z,9.56
2019-04-29T03:44:26.650Z,9.63
2019-04-29T03:46:52.650Z,9.50
2019-04-29T03:49:18.561Z,9.56
2019-04-29T03:51:44.480Z,9.50
2019-04-29T03:54:10.456Z,9.63
2019-04-29T03:56:36.490Z,9.56
2019-04-29T03:59:02.422Z,9.63
2019-04-29T04:01:32.997Z,9.38
2019-04-29T04:04:06.445Z,9.63
2019-04-29T04:06:34.207Z,9.44
2019-04-29T04:09:05.861Z,9.56
2019-04-29T04:11:30.698Z,9.44
2019-04-29T04:13:56.577Z,9.69
2019-04-29T04:16:27.099Z,9.50
2019-04-29T04:18:54.951Z,9.44
2019-04-29T04:21:20.982Z,9.44
2019-04-29T04:23:46.938Z,9.56
2019-04-29T04:26:12.790Z,9.63
2019-04-29T04:28:38.692Z,9.38
2019-04-29T04:31:06.906Z,9.44
2019-04-29T04:33:32.371Z,9.44
2019-04-29T04:35:58.328Z,9.56
2019-04-29T04:38:24.476Z,9.50
2019-04-29T04:40:54.836Z,9.56
2019-04-29T04:43:20.726Z,9.69
2019-04-29T04:45:46.693Z,9.56
2019-04-29T04:48:12.547Z,9.63
2019-04-29T04:50:38.514Z,9.56
2019-04-29T04:53:04.396Z,9.69
2019-04-29T04:55:32.215Z,9.63
2019-04-29T04:57:58.331Z,9.63
2019-04-29T05:00:26.100Z,9.50
2019-04-29T05:02:52.015Z,9.63
2019-04-29T05:05:17.856Z,9.50
2019-04-29T05:07:43.857Z,9.63
2019-04-29T05:10:09.779Z,9.50
2019-04-29T05:12:35.635Z,9.56
2019-04-29T05:15:01.504Z,9.69
2019-04-29T05:17:27.361Z,9.69
2019-04-29T05:19:53.277Z,9.88
2019-04-29T05:22:19.329Z,9.69
2019-04-29T05:24:45.172Z,9.69
2019-04-29T05:27:11.031Z,9.88
2019-04-29T05:29:36.880Z,9.81
2019-04-29T05:32:02.759Z,9.88
2019-04-29T05:34:30.667Z,9.94
2019-04-29T05:36:58.424Z,10.00
2019-04-29T05:39:35.002Z,9.94
2019-04-29T05:42:00.846Z,10.13
2019-04-29T05:44:28.615Z,9.88
2019-04-29T05:46:58.923Z,10.06
2019-04-29T05:49:26.731Z,9.88
2019-04-29T05:51:57.605Z,9.81
2019-04-29T05:54:26.968Z,9.94
2019-04-29T05:56:51.691Z,10.00
2019-04-29T05:59:17.572Z,10.00
2019-04-29T06:01:47.289Z,9.88
2019-04-29T06:04:11.609Z,10.13
2019-04-29T06:06:39.736Z,10.00
2019-04-29T06:09:11.570Z,9.94
2019-04-29T06:11:34.987Z,9.94
2019-04-29T06:14:00.867Z,9.94
2019-04-29T06:16:26.776Z,9.88
2019-04-29T06:18:59.687Z,10.00
2019-04-29T06:21:20.509Z,9.94
2019-04-29T06:23:46.367Z,9.94
2019-04-29T06:26:12.210Z,10.00
2019-04-29T06:28:40.308Z,10.00
2019-04-29T06:31:06.143Z,10.00
2019-04-29T06:33:32.046Z,9.88
2019-04-29T06:35:57.916Z,10.06
2019-04-29T06:38:23.846Z,9.88
2019-04-29T06:40:49.726Z,9.81
2019-04-29T06:43:17.132Z,9.88
2019-04-29T06:45:43.171Z,9.94
2019-04-29T06:48:09.034Z,9.81
2019-04-29T06:50:34.949Z,9.88
2019-04-29T06:53:00.794Z,9.88
2019-04-29T06:55:26.712Z,9.81
2019-04-29T06:57:52.666Z,9.75
2019-04-29T07:00:22.241Z,9.94
2019-04-29T07:02:49.819Z,10.00
2019-04-29T07:05:14.248Z,10.06
2019-04-29T07:07:40.100Z,10.00
2019-04-29T07:10:06.770Z,10.00
2019-04-29T07:12:32.615Z,10.00
2019-04-29T07:14:58.532Z,10.13
2019-04-29T07:17:24.497Z,10.19
2019-04-29T07:19:50.470Z,10.13
2019-04-29T07:22:16.435Z,10.06
2019-04-29T07:24:42.411Z,9.94
2019-04-29T07:27:08.352Z,10.06
2019-04-29T07:29:41.939Z,9.94
2019-04-29T07:32:09.381Z,10.31
2019-04-29T07:34:39.110Z,10.25
2019-04-29T07:37:03.266Z,10.00
2019-04-29T07:39:31.633Z,10.00
2019-04-29T07:41:56.935Z,10.00
2019-04-29T07:44:24.190Z,10.13
2019-04-29T07:46:58.274Z,10.19
2019-04-29T07:49:22.368Z,10.31
2019-04-29T07:51:48.337Z,10.25
2019-04-29T07:54:16.042Z,10.63
2019-04-29T07:56:43.515Z,10.38
2019-04-29T07:59:11.351Z,10.44
2019-04-29T08:01:37.443Z,10.38
2019-04-29T08:04:03.444Z,10.25
2019-04-29T08:06:30.067Z,10.25
2019-04-29T08:09:02.771Z,10.19
2019-04-29T08:11:24.171Z,9.94
2019-04-29T08:13:50.087Z,9.88
2019-04-29T08:16:17.084Z,9.94
2019-04-29T08:18:44.161Z,10.06
2019-04-29T08:21:10.268Z,10.06
2019-04-29T08:23:41.124Z,9.94
2019-04-29T08:26:05.665Z,10.06
2019-04-29T08:28:31.635Z,9.88
2019-04-29T08:30:57.483Z,9.88
2019-04-29T08:33:23.319Z,10.19
2019-04-29T08:35:49.235Z,10.06
2019-04-29T08:38:15.499Z,10.00
2019-04-29T08:40:45.103Z,9.81
2019-04-29T08:43:15.821Z,9.94
2019-04-29T08:46:01.764Z,10.19
2019-04-29T08:48:27.635Z,9.94
2019-04-29T08:50:53.487Z,9.81
2019-04-29T08:53:19.343Z,10.00
2019-04-29T08:55:45.209Z,9.75
2019-04-29T08:58:12.756Z,9.69
2019-04-29T09:00:38.816Z,10.13
2019-04-29T09:03:04.731Z,10.38
2019-04-29T09:05:30.615Z,10.06
2019-04-29T09:07:57.429Z,9.88
2019-04-29T09:10:24.441Z,9.94
2019-04-29T09:12:50.358Z,9.75
2019-04-29T09:15:16.341Z,9.75
2019-04-29T09:17:42.188Z,9.94
2019-04-29T09:20:08.353Z,9.88
2019-04-29T09:22:36.219Z,9.94
2019-04-29T09:25:26.210Z,10.00
2019-04-29T09:27:51.909Z,9.94
2019-04-29T09:30:17.863Z,10.00
2019-04-29T09:32:43.697Z,9.81
2019-04-29T09:35:09.676Z,9.94
2019-04-29T09:37:35.594Z,9.81
2019-04-29T09:40:02.047Z,10.00
2019-04-29T09:42:31.045Z,10.13
2019-04-29T09:44:58.968Z,9.94
2019-04-29T09:47:24.824Z,9.88
2019-04-29T09:49:50.720Z,10.00
2019-04-29T09:52:16.571Z,10.13
2019-04-29T09:54:42.402Z,9.94
2019-04-29T09:57:08.264Z,10.06
2019-04-29T09:59:41.655Z,9.94
2019-04-29T10:02:31.238Z,9.94
2019-04-29T10:05:06.308Z,10.00
2019-04-29T10:07:32.189Z,10.69
2019-04-29T10:10:02.501Z,11.00
2019-04-29T10:12:26.768Z,11.12
2019-04-29T10:14:52.726Z,11.31
2019-04-29T10:17:29.861Z,11.88
2019-04-29T10:19:57.602Z,11.38
2019-04-29T10:22:23.449Z,11.38
2019-04-29T10:24:49.356Z,11.19
2019-04-29T10:27:15.222Z,10.94
2019-04-29T10:29:43.057Z,11.19
2019-04-29T10:32:10.021Z,11.38
2019-04-29T10:34:36.208Z,11.00
2019-04-29T10:37:02.156Z,10.88
2019-04-29T10:39:33.044Z,10.94
2019-04-29T10:42:00.840Z,10.81
2019-04-29T10:44:28.653Z,11.12
2019-04-29T10:46:56.452Z,11.25
2019-04-29T10:49:42.409Z,10.69
2019-04-29T10:52:09.496Z,11.06
2019-04-29T10:54:35.400Z,11.25
2019-04-29T10:57:01.300Z,11.00
2019-04-29T10:59:35.609Z,11.00
2019-04-29T11:02:13.346Z,10.75
2019-04-29T11:04:38.036Z,11.00
2019-04-29T11:07:14.101Z,11.06
2019-04-29T11:09:58.899Z,11.25
2019-04-29T11:12:24.850Z,11.31
2019-04-29T11:14:50.734Z,11.50
2019-04-29T11:17:18.611Z,11.56
2019-04-29T11:19:44.565Z,11.63
2019-04-29T11:22:12.391Z,11.50
2019-04-29T11:24:49.344Z,11.69
2019-04-29T11:27:21.348Z,11.38
2019-04-29T11:29:47.458Z,11.00
2019-04-29T11:32:16.494Z,11.56
2019-04-29T11:34:48.379Z,11.12
2019-04-29T11:37:17.729Z,11.25
2019-04-29T11:39:41.600Z,11.31
2019-04-29T11:42:08.142Z,11.69
2019-04-29T11:44:33.977Z,11.63
2019-04-29T11:46:59.828Z,11.75
2019-04-29T11:49:29.482Z,11.25
2019-04-29T11:52:09.058Z,11.31
2019-04-29T11:54:23.110Z,11.31
2019-04-29T11:56:49.050Z,11.44
2019-04-29T11:59:22.455Z,11.50
2019-04-29T12:01:51.800Z,11.75
2019-04-29T12:04:20.093Z,11.63
2019-04-29T12:06:46.679Z,12.06
2019-04-29T12:09:12.516Z,12.25
2019-04-29T12:11:38.573Z,12.19
2019-04-29T12:14:23.890Z,12.25
2019-04-29T12:16:57.411Z,12.56
2019-04-29T12:19:34.116Z,12.69
2019-04-29T12:22:00.686Z,12.63
2019-04-29T12:24:26.595Z,12.44
2019-04-29T12:26:52.419Z,12.56
2019-04-29T12:29:19.515Z,12.81
2019-04-29T12:31:56.430Z,12.69
2019-04-29T12:34:42.614Z,13.00
2019-04-29T12:37:10.391Z,13.06
2019-04-29T12:39:45.020Z,13.13
2019-04-29T12:42:29.602Z,13.13
2019-04-29T12:45:19.428Z,13.25
2019-04-29T12:47:43.619Z,13.31
2019-04-29T12:50:09.595Z,13.13
2019-04-29T12:52:35.468Z,13.00
2019-04-29T12:55:18.743Z,13.31
2019-04-29T12:57:29.276Z,13.44
2019-04-29T12:59:55.133Z,13.50
2019-04-29T13:02:24.319Z,13.62
2019-04-29T13:04:55.673Z,13.56
2019-04-29T13:07:42.943Z,13.56
2019-04-29T13:10:25.073Z,13.94
2019-04-29T13:12:50.917Z,14.06
2019-04-29T13:15:24.339Z,14.31
2019-04-29T13:18:12.743Z,14.31
2019-04-29T13:20:35.651Z,14.56
2019-04-29T13:23:16.738Z,14.13
2019-04-29T13:25:29.238Z,14.44
2019-04-29T13:27:56.102Z,14.56
2019-04-29T13:30:22.853Z,14.44
2019-04-29T13:32:50.613Z,14.38
2019-04-29T13:35:19.554Z,14.31
2019-04-29T13:37:45.515Z,14.56
2019-04-29T13:40:11.867Z,14.56
2019-04-29T13:42:37.806Z,14.63
2019-04-29T13:45:13.611Z,14.69
2019-04-29T13:47:38.471Z,14.63
2019-04-29T13:50:18.819Z,14.56
2019-04-29T13:52:40.459Z,14.87
2019-04-29T13:55:17.041Z,14.81
2019-04-29T13:57:34.245Z,15.13
2019-04-29T14:00:24.661Z,15.13
2019-04-29T14:02:58.824Z,15.06
2019-04-29T14:05:19.727Z,15.44
2019-04-29T14:07:48.687Z,15.69
2019-04-29T14:10:15.010Z,15.56
2019-04-29T14:12:48.196Z,15.44
2019-04-29T14:15:08.991Z,15.69
2019-04-29T14:17:35.615Z,15.69
2019-04-29T14:20:05.361Z,15.69
2019-04-29T14:22:31.292Z,15.38
2019-04-29T14:24:57.456Z,15.50
2019-04-29T14:27:25.093Z,15.56
2019-04-29T14:29:53.039Z,15.69
2019-04-29T14:32:32.767Z,15.81
2019-04-29T14:34:54.712Z,15.94
2019-04-29T14:37:24.928Z,16.25
2019-04-29T14:39:49.709Z,16.62
2019-04-29T14:42:17.527Z,16.12
2019-04-29T14:44:45.325Z,17.00
2019-04-29T14:47:13.116Z,16.69
2019-04-29T14:49:55.061Z,17.00
2019-04-29T14:52:20.768Z,16.44
2019-04-29T14:54:46.598Z,16.56
2019-04-29T14:57:12.497Z,16.25
2019-04-29T14:59:38.661Z,16.19
2019-04-29T15:02:07.172Z,16.12
2019-04-29T15:04:38.031Z,16.12
2019-04-29T15:07:03.921Z,16.25
2019-04-29T15:09:29.943Z,16.44
2019-04-29T15:11:59.051Z,16.56
2019-04-29T15:14:33.239Z,16.50
2019-04-29T15:17:01.195Z,16.37
2019-04-29T15:19:48.846Z,16.44
2019-04-29T15:22:15.411Z,16.37
2019-04-29T15:24:41.308Z,16.37
2019-04-29T15:27:07.188Z,16.56
2019-04-29T15:29:33.555Z,16.94
2019-04-29T15:31:59.728Z,17.19
2019-04-29T15:34:25.556Z,17.00
2019-04-29T15:36:51.418Z,17.12
2019-04-29T15:39:17.445Z,17.87
2019-04-29T15:41:43.738Z,17.56
2019-04-29T15:44:18.955Z,17.44
2019-04-29T15:46:46.358Z,17.06
2019-04-29T15:49:05.801Z,17.19
2019-04-29T15:51:32.032Z,17.06
2019-04-29T15:53:58.050Z,16.87
2019-04-29T15:56:28.696Z,16.69
2019-04-29T15:58:51.859Z,16.56
2019-04-29T16:01:27.122Z,16.56
2019-04-29T16:03:49.860Z,16.56
2019-04-29T16:06:40.178Z,16.56
2019-04-29T16:09:11.289Z,16.50
2019-04-29T16:11:39.140Z,16.44
2019-04-29T16:14:09.740Z,16.44
2019-04-29T16:16:34.998Z,16.31
2019-04-29T16:19:08.394Z,16.31
2019-04-29T16:21:32.230Z,16.56
2019-04-29T16:23:58.951Z,16.56
2019-04-29T16:26:29.600Z,16.62
2019-04-29T16:28:52.604Z,16.56
2019-04-29T16:31:18.532Z,16.56
2019-04-29T16:33:47.273Z,16.56
2019-04-29T16:36:12.232Z,16.62
2019-04-29T16:38:38.253Z,16.25
2019-04-29T16:41:19.123Z,16.56
2019-04-29T16:43:41.841Z,17.00
2019-04-29T16:46:15.550Z,16.50
2019-04-29T16:48:41.508Z,17.25
2019-04-29T16:51:14.071Z,16.94
2019-04-29T16:53:37.304Z,16.62
2019-04-29T16:56:03.250Z,16.00
2019-04-29T16:58:29.190Z,16.06
2019-04-29T17:00:55.176Z,15.94
2019-04-29T17:03:21.287Z,16.19
2019-04-29T17:05:47.258Z,16.62
2019-04-29T17:08:15.317Z,16.37
2019-04-29T17:11:01.015Z,16.44
2019-04-29T17:13:26.911Z,16.37
2019-04-29T17:15:53.899Z,16.81
2019-04-29T17:18:19.838Z,16.62
2019-04-29T17:20:45.691Z,16.31
2019-04-29T17:23:11.555Z,16.37
2019-04-29T17:25:37.495Z,16.25
2019-04-29T17:28:12.334Z,15.94
2019-04-29T17:30:58.578Z,16.12
2019-04-29T17:33:33.334Z,15.81
2019-04-29T17:36:02.207Z,15.69
2019-04-29T17:38:28.075Z,15.38
2019-04-29T17:40:53.980Z,15.44
2019-04-29T17:43:21.731Z,15.25
2019-04-29T17:45:49.619Z,15.31
2019-04-29T17:48:29.182Z,15.19
2019-04-29T17:50:59.917Z,15.06
2019-04-29T17:53:27.953Z,15.19
2019-04-29T17:55:56.021Z,15.13
2019-04-29T17:58:26.322Z,15.06
2019-04-29T18:01:10.933Z,14.69
2019-04-29T18:03:41.528Z,14.38
2019-04-29T18:06:18.863Z,14.63
2019-04-29T18:08:47.105Z,14.38
2019-04-29T18:11:14.908Z,15.13
2019-04-29T18:13:41.345Z,14.87
2019-04-29T18:16:17.441Z,14.94
2019-04-29T18:18:58.545Z,14.81
2019-04-29T18:21:43.557Z,13.88
2019-04-29T18:26:59.527Z,13.75
2019-04-29T18:29:25.801Z,13.62
2019-04-29T18:31:52.048Z,13.81
2019-04-29T18:34:17.875Z,14.19
2019-04-29T18:36:43.723Z,13.81
2019-04-29T18:39:11.631Z,13.50
2019-04-29T18:41:37.970Z,14.13
2019-04-29T18:44:05.350Z,13.75
2019-04-29T18:46:31.634Z,13.31
2019-04-29T18:49:03.009Z,13.00
2019-04-29T18:51:28.690Z,12.88
2019-04-29T18:53:53.091Z,12.19
2019-04-29T18:56:19.048Z,12.06
2019-04-29T18:58:46.879Z,11.88
2019-04-29T19:01:12.727Z,11.75
2019-04-29T19:03:46.527Z,11.50
2019-04-29T19:06:12.473Z,11.44
2019-04-29T19:08:38.327Z,11.44
2019-04-29T19:11:05.070Z,11.50
2019-04-29T19:13:31.942Z,11.56
2019-04-29T19:16:08.987Z,11.31
2019-04-29T19:18:25.913Z,11.31
2019-04-29T19:20:52.685Z,11.12
2019-04-29T19:23:22.365Z,11.12
2019-04-29T19:25:49.703Z,11.06
2019-04-29T19:28:24.963Z,10.88
2019-04-29T19:30:42.902Z,10.94
2019-04-29T19:33:09.044Z,10.81
2019-04-29T19:35:38.556Z,10.63
2019-04-29T19:38:02.947Z,10.94
2019-04-29T19:40:30.538Z,10.56
2019-04-29T19:42:56.549Z,10.63
2019-04-29T19:45:22.377Z,10.38
2019-04-29T19:47:53.031Z,10.31
2019-04-29T19:50:19.476Z,10.50
2019-04-29T19:52:45.405Z,10.44
2019-04-29T19:55:11.462Z,10.25
2019-04-29T19:57:42.212Z,10.25
2019-04-29T20:00:07.008Z,10.19
2019-04-29T20:02:35.494Z,10.13
2019-04-29T20:05:16.467Z,10.19
2019-04-29T20:07:44.459Z,10.06
2019-04-29T20:10:12.136Z,10.19
2019-04-29T20:12:38.843Z,10.19
2019-04-29T20:15:08.106Z,9.94
2019-04-29T20:17:47.845Z,9.88
2019-04-29T20:20:15.397Z,9.69
2019-04-29T20:22:43.512Z,9.63
2019-04-29T20:25:09.490Z,9.38
2019-04-29T20:27:37.478Z,9.38
2019-04-29T20:30:15.873Z,9.50
2019-04-29T20:32:36.569Z,9.31
2019-04-29T20:35:08.343Z,9.06
2019-04-29T20:37:32.632Z,9.19
2019-04-29T20:40:00.754Z,9.06
2019-04-29T20:42:26.351Z,8.94
2019-04-29T20:44:52.338Z,8.94
2019-04-29T20:47:22.950Z,9.06
2019-04-29T20:49:46.142Z,9.06
2019-04-29T20:52:30.717Z,9.06
2019-04-29T20:55:00.739Z,9.25
2019-04-29T20:57:27.618Z,9.06
2019-04-29T20:59:52.555Z,9.13
2019-04-29T21:02:31.431Z,9.06
2019-04-29T21:04:47.994Z,9.25
2019-04-29T21:07:18.500Z,9.19
2019-04-29T21:09:41.704Z,8.88
2019-04-29T21:12:20.434Z,9.25
2019-04-29T21:14:47.962Z,9.19
2019-04-29T21:17:26.432Z,9.00
2019-04-29T21:19:41.586Z,8.81
2019-04-29T21:22:07.438Z,9.06
2019-04-29T21:24:35.176Z,9.00
2019-04-29T21:27:05.288Z,8.88
2019-04-29T21:29:30.723Z,8.88
2019-04-29T21:32:01.453Z,8.56
2019-04-29T21:34:29.650Z,8.63
2019-04-29T21:37:01.521Z,8.44
2019-04-29T21:39:32.329Z,8.44
2019-04-29T21:42:17.036Z,8.44
2019-04-29T21:44:42.974Z,8.63
2019-04-29T21:47:42.638Z,8.31
2019-04-29T21:50:09.701Z,8.44
2019-04-29T21:52:35.330Z,8.56
2019-04-29T21:55:06.562Z,8.31
2019-04-29T21:57:41.677Z,8.31
2019-04-29T22:00:23.928Z,8.19
2019-04-29T22:02:50.470Z,8.25
2019-04-29T22:05:20.420Z,8.25
2019-04-29T22:07:47.500Z,8.25
2019-04-29T22:10:15.234Z,8.06
2019-04-29T22:12:41.432Z,8.06
2019-04-29T22:15:07.547Z,8.00
2019-04-29T22:17:35.605Z,8.06
2019-04-29T22:20:03.922Z,7.94
2019-04-29T22:22:30.581Z,7.94
2019-04-29T22:25:05.088Z,7.81
2019-04-29T22:27:25.063Z,7.62
2019-04-29T22:29:50.887Z,7.75
2019-04-29T22:32:19.156Z,7.81
2019-04-29T22:34:45.187Z,7.81
2019-04-29T22:37:11.091Z,7.62
2019-04-29T22:39:36.956Z,7.50
2019-04-29T22:42:04.767Z,7.50
2019-04-29T22:44:30.598Z,7.50
2019-04-29T22:46:56.440Z,7.37
2019-04-29T22:49:25.187Z,7.50
2019-04-29T22:51:54.591Z,7.56
2019-04-29T22:54:22.143Z,7.62
2019-04-29T22:56:52.161Z,7.37
2019-04-29T22:59:18.987Z,7.50
2019-04-29T23:01:49.157Z,7.56
2019-04-29T23:04:17.907Z,7.31
2019-04-29T23:06:47.678Z,7.12
2019-04-29T23:09:13.643Z,7.12
2019-04-29T23:11:40.749Z,6.94
2019-04-29T23:14:10.063Z,7.12
2019-04-29T23:16:35.707Z,7.06
2019-04-29T23:19:02.339Z,6.87
2019-04-29T23:21:42.743Z,6.87
2019-04-29T23:24:17.327Z,6.81
2019-04-29T23:26:42.556Z,6.75
2019-04-29T23:29:08.803Z,6.75
2019-04-29T23:31:35.162Z,6.87
2019-04-29T23:34:02.771Z,6.81
2019-04-29T23:36:28.611Z,6.87
2019-04-29T23:38:54.824Z,6.69
2019-04-29T23:41:27.716Z,6.75
2019-04-29T23:43:50.029Z,6.50
2019-04-29T23:46:16.233Z,6.69
2019-04-29T23:48:42.296Z,6.87
2019-04-29T23:51:10.078Z,6.69
2019-04-29T23:53:35.895Z,6.62
2019-04-29T23:56:05.709Z,6.69
2019-04-29T23:58:32.712Z,6.50
